createdAt,value
2018-01-01T00:00:06.893Z,0
2018-01-01T00:01:21.340Z,0
2018-01-01T00:02:06.744Z,0
2018-01-01T00:03:06.717Z,0
2018-01-01T00:04:06.755Z,0
2018-01-01T00:05:06.756Z,0
2018-01-01T00:06:06.799Z,0
2018-01-01T00:08:36.161Z,0
2018-01-01T00:09:07.125Z,0
2018-01-01T00:10:07.148Z,0
2018-01-01T00:12:06.925Z,0
2018-01-01T00:13:06.920Z,0
2018-01-01T00:14:07.221Z,0
2018-01-01T00:15:06.999Z,0
2018-01-01T00:16:21.702Z,0
2018-01-01T00:18:07.326Z,0
2018-01-01T00:19:21.992Z,0
2018-01-01T00:20:21.735Z,0
2018-01-01T00:21:06.833Z,0
2018-01-01T00:22:07.399Z,0
2018-01-01T00:23:21.808Z,0
2018-01-01T00:24:07.127Z,0
2018-01-01T00:25:06.892Z,0
2018-01-01T00:26:07.302Z,0
2018-01-01T00:27:07.452Z,0
2018-01-01T00:28:07.244Z,0
2018-01-01T00:29:07.254Z,0
2018-01-01T00:30:07.324Z,0
2018-01-01T00:31:07.282Z,0
2018-01-01T00:32:07.327Z,0
2018-01-01T00:33:07.334Z,0
2018-01-01T00:34:07.333Z,0
2018-01-01T00:35:07.352Z,0
2018-01-01T00:36:07.700Z,0
2018-01-01T00:37:06.934Z,0
2018-01-01T00:38:07.682Z,0
2018-01-01T00:39:07.718Z,0
2018-01-01T00:40:07.200Z,0
2018-01-01T00:41:07.243Z,0
2018-01-01T00:42:07.497Z,0
2018-01-01T00:43:07.541Z,0
2018-01-01T00:44:07.338Z,0
2018-01-01T00:45:07.320Z,0
2018-01-01T00:46:07.613Z,0
2018-01-01T00:47:07.851Z,0
2018-01-01T00:48:22.307Z,0
2018-01-01T00:49:07.638Z,0
2018-01-01T00:50:07.925Z,0
2018-01-01T00:51:07.202Z,0
2018-01-01T00:52:07.473Z,0
2018-01-01T00:53:07.714Z,0
2018-01-01T00:54:07.798Z,0
2018-01-01T00:55:22.458Z,0
2018-01-01T00:56:08.045Z,0
2018-01-01T00:57:22.785Z,0
2018-01-01T00:58:07.806Z,0
2018-01-01T00:59:08.141Z,0
2018-01-01T01:00:07.601Z,0
2018-01-01T01:01:07.648Z,0
2018-01-01T01:02:22.324Z,0
2018-01-01T01:03:07.684Z,0
2018-01-01T01:04:07.960Z,0
2018-01-01T01:05:08.246Z,0
2018-01-01T01:06:07.993Z,0
2018-01-01T01:07:08.035Z,0
2018-01-01T01:08:08.260Z,0
2018-01-01T01:09:08.322Z,0
2018-01-01T01:10:22.737Z,0
2018-01-01T01:11:23.003Z,0
2018-01-01T01:12:23.066Z,0
2018-01-01T01:13:08.114Z,0
2018-01-01T01:14:08.445Z,0
2018-01-01T01:15:23.105Z,0
2018-01-01T01:16:08.226Z,0
2018-01-01T01:17:07.934Z,0
2018-01-01T01:18:08.212Z,0
2018-01-01T01:19:07.999Z,0
2018-01-01T01:20:08.052Z,0
2018-01-01T01:21:08.303Z,0
2018-01-01T01:22:08.351Z,0
2018-01-01T01:23:08.605Z,0
2018-01-01T01:24:08.326Z,0
2018-01-01T01:25:23.310Z,0
2018-01-01T01:26:23.326Z,0
2018-01-01T01:27:23.114Z,0
2018-01-01T01:28:08.413Z,0
2018-01-01T01:29:08.748Z,0
2018-01-01T01:30:08.488Z,0
2018-01-01T01:31:08.749Z,0
2018-01-01T01:32:08.500Z,0
2018-01-01T01:33:08.289Z,0
2018-01-01T01:34:08.790Z,0
2018-01-01T01:35:08.565Z,0
2018-01-01T01:36:23.271Z,0
2018-01-01T01:37:08.713Z,0
2018-01-01T01:38:08.897Z,0
2018-01-01T01:39:23.085Z,0
2018-01-01T01:40:08.969Z,0
2018-01-01T01:41:08.927Z,0
2018-01-01T01:42:08.730Z,0
2018-01-01T01:44:23.435Z,0
2018-01-01T01:45:08.783Z,0
2018-01-01T01:46:08.597Z,0
2018-01-01T01:47:38.187Z,0
2018-01-01T01:48:09.111Z,0
2018-01-01T01:49:08.635Z,0
2018-01-01T01:50:09.107Z,0
2018-01-01T01:51:09.152Z,0
2018-01-01T01:53:08.953Z,0
2018-01-01T01:54:08.937Z,0
2018-01-01T01:56:09.254Z,0
2018-01-01T01:57:23.962Z,0
2018-01-01T01:58:38.647Z,0
2018-01-01T01:59:08.837Z,0
2018-01-01T02:00:09.344Z,0
2018-01-01T02:02:09.424Z,0
2018-01-01T02:03:09.157Z,0
2018-01-01T02:04:09.384Z,0
2018-01-01T02:05:09.435Z,0
2018-01-01T02:06:09.468Z,0
2018-01-01T02:07:23.363Z,0
2018-01-01T02:08:09.572Z,0
2018-01-01T02:09:09.501Z,0
2018-01-01T02:10:09.546Z,0
2018-01-01T02:11:09.555Z,0
2018-01-01T02:12:09.575Z,0
2018-01-01T02:13:24.017Z,0
2018-01-01T02:14:09.608Z,0
2018-01-01T02:15:09.615Z,0
2018-01-01T02:16:09.668Z,0
2018-01-01T02:17:09.648Z,0
2018-01-01T02:18:09.417Z,0
2018-01-01T02:19:24.370Z,0
2018-01-01T02:20:09.503Z,0
2018-01-01T02:21:24.437Z,0
2018-01-01T02:22:09.796Z,0
2018-01-01T02:23:09.825Z,0
2018-01-01T02:24:09.847Z,0
2018-01-01T02:25:09.593Z,0
2018-01-01T02:26:09.820Z,0
2018-01-01T02:27:09.654Z,0
2018-01-01T02:28:09.143Z,0
2018-01-01T02:29:09.919Z,0
2018-01-01T02:30:24.611Z,0
2018-01-01T02:31:09.966Z,0
2018-01-01T02:32:09.995Z,0
2018-01-01T02:33:24.391Z,0
2018-01-01T02:34:09.787Z,0
2018-01-01T02:35:24.440Z,0
2018-01-01T02:36:10.176Z,0
2018-01-01T02:37:09.798Z,0
2018-01-01T02:38:24.531Z,0
2018-01-01T02:39:10.163Z,0
2018-01-01T02:40:09.875Z,0
2018-01-01T02:41:24.804Z,0
2018-01-01T02:42:09.951Z,0
2018-01-01T02:43:09.929Z,0
2018-01-01T02:44:24.881Z,0
2018-01-01T02:45:24.918Z,0
2018-01-01T02:46:24.664Z,0
2018-01-01T02:47:09.774Z,0
2018-01-01T02:48:10.053Z,0
2018-01-01T02:49:10.080Z,0
2018-01-01T02:50:09.891Z,0
2018-01-01T02:51:10.106Z,0
2018-01-01T02:52:10.113Z,0
2018-01-01T02:53:10.208Z,0
2018-01-01T02:54:10.457Z,0
2018-01-01T02:55:10.478Z,0
2018-01-01T02:56:10.215Z,0
2018-01-01T02:57:10.464Z,0
2018-01-01T02:58:10.484Z,0
2018-01-01T02:59:10.506Z,0
2018-01-01T03:00:10.280Z,0
2018-01-01T03:01:10.580Z,0
2018-01-01T03:02:24.968Z,0
2018-01-01T03:03:10.394Z,0
2018-01-01T03:04:10.349Z,0
2018-01-01T03:05:24.806Z,0
2018-01-01T03:07:10.407Z,0
2018-01-01T03:08:25.363Z,0
2018-01-01T03:09:10.535Z,0
2018-01-01T03:11:10.746Z,0
2018-01-01T03:12:25.462Z,0
2018-01-01T03:13:10.532Z,0
2018-01-01T03:14:10.556Z,0
2018-01-01T03:15:10.823Z,0
2018-01-01T03:16:10.572Z,0
2018-01-01T03:17:25.542Z,0
2018-01-01T03:18:25.336Z,0
2018-01-01T03:19:25.578Z,0
2018-01-01T03:20:10.649Z,0
2018-01-01T03:21:10.943Z,0
2018-01-01T03:22:10.227Z,0
2018-01-01T03:23:10.511Z,0
2018-01-01T03:24:11.013Z,0
2018-01-01T03:25:25.780Z,0
2018-01-01T03:26:10.871Z,0
2018-01-01T03:27:11.089Z,0
2018-01-01T03:28:25.538Z,0
2018-01-01T03:29:10.841Z,0
2018-01-01T03:30:10.910Z,0
2018-01-01T03:31:10.961Z,0
2018-01-01T03:34:10.971Z,0
2018-01-01T03:35:10.969Z,0
2018-01-01T03:36:11.259Z,0
2018-01-01T03:37:25.716Z,0
2018-01-01T03:38:10.814Z,0
2018-01-01T03:39:11.272Z,0
2018-01-01T03:40:11.324Z,0
2018-01-01T03:41:11.100Z,0
2018-01-01T03:42:11.378Z,0
2018-01-01T03:44:11.465Z,0
2018-01-01T03:45:11.464Z,0
2018-01-01T03:47:11.217Z,0
2018-01-01T03:48:11.608Z,0
2018-01-01T03:49:11.520Z,0
2018-01-01T03:50:11.280Z,0
2018-01-01T03:51:11.331Z,0
2018-01-01T03:52:25.989Z,0
2018-01-01T03:53:26.270Z,0
2018-01-01T03:54:11.380Z,0
2018-01-01T03:55:11.633Z,0
2018-01-01T03:56:26.084Z,0
2018-01-01T03:57:11.418Z,0
2018-01-01T03:58:11.229Z,0
2018-01-01T03:59:25.883Z,0
2018-01-01T04:00:11.476Z,0
2018-01-01T04:01:11.773Z,0
2018-01-01T04:02:11.539Z,0
2018-01-01T04:03:26.192Z,0
2018-01-01T04:04:11.276Z,0
2018-01-01T04:05:26.525Z,0
2018-01-01T04:06:11.590Z,0
2018-01-01T04:07:11.849Z,0
2018-01-01T04:08:11.374Z,0
2018-01-01T04:09:11.687Z,0
2018-01-01T04:10:11.395Z,0
2018-01-01T04:11:11.959Z,0
2018-01-01T04:12:11.720Z,0
2018-01-01T04:13:11.966Z,0
2018-01-01T04:14:11.496Z,0
2018-01-01T04:15:11.747Z,0
2018-01-01T04:16:11.563Z,0
2018-01-01T04:17:12.085Z,0
2018-01-01T04:18:11.564Z,0
2018-01-01T04:19:12.131Z,0
2018-01-01T04:20:26.776Z,0
2018-01-01T04:21:26.831Z,0
2018-01-01T04:22:12.171Z,0
2018-01-01T04:23:12.175Z,0
2018-01-01T04:24:11.992Z,0
2018-01-01T04:25:12.212Z,0
2018-01-01T04:26:26.647Z,0
2018-01-01T04:27:12.277Z,0
2018-01-01T04:29:26.701Z,0
2018-01-01T04:30:12.065Z,0
2018-01-01T04:31:12.106Z,0
2018-01-01T04:32:12.345Z,0
2018-01-01T04:33:12.121Z,0
2018-01-01T04:34:12.145Z,0
2018-01-01T04:35:12.457Z,0
2018-01-01T04:36:12.199Z,0
2018-01-01T04:37:26.876Z,0
2018-01-01T04:38:12.505Z,0
2018-01-01T04:39:12.227Z,0
2018-01-01T04:40:12.282Z,0
2018-01-01T04:41:12.288Z,0
2018-01-01T04:42:12.573Z,0
2018-01-01T04:43:12.618Z,0
2018-01-01T04:44:12.584Z,0
2018-01-01T04:45:11.856Z,0
2018-01-01T04:46:12.154Z,0
2018-01-01T04:47:12.411Z,0
2018-01-01T04:48:12.410Z,0
2018-01-01T04:49:12.454Z,0
2018-01-01T04:50:12.691Z,0
2018-01-01T04:51:12.755Z,0
2018-01-01T04:52:27.172Z,0
2018-01-01T04:53:42.106Z,0
2018-01-01T04:54:27.492Z,0
2018-01-01T04:55:12.539Z,0
2018-01-01T04:56:12.557Z,0
2018-01-01T04:57:12.601Z,0
2018-01-01T04:58:27.568Z,0
2018-01-01T05:00:12.386Z,0
2018-01-01T05:01:12.926Z,0
2018-01-01T05:02:12.712Z,0
2018-01-01T05:03:12.464Z,0
2018-01-01T05:04:12.997Z,0
2018-01-01T05:05:12.275Z,0
2018-01-01T05:06:13.046Z,0
2018-01-01T05:07:12.789Z,0
2018-01-01T05:08:27.599Z,0
2018-01-01T05:09:13.068Z,0
2018-01-01T05:10:12.959Z,0
2018-01-01T05:11:13.117Z,0
2018-01-01T05:12:13.253Z,0
2018-01-01T05:13:13.158Z,0
2018-01-01T05:14:12.948Z,0
2018-01-01T05:15:12.706Z,0
2018-01-01T05:16:13.238Z,0
2018-01-01T05:17:12.971Z,0
2018-01-01T05:18:13.244Z,0
2018-01-01T05:19:13.062Z,0
2018-01-01T05:20:13.325Z,0
2018-01-01T05:21:28.026Z,0
2018-01-01T05:22:13.098Z,0
2018-01-01T05:23:12.872Z,0
2018-01-01T05:24:28.037Z,0
2018-01-01T05:25:13.395Z,0
2018-01-01T05:26:13.428Z,0
2018-01-01T05:27:13.168Z,0
2018-01-01T05:28:13.457Z,0
2018-01-01T05:30:13.497Z,0
2018-01-01T05:31:13.257Z,0
2018-01-01T05:32:13.303Z,0
2018-01-01T05:33:13.331Z,0
2018-01-01T05:34:13.594Z,0
2018-01-01T05:35:13.592Z,0
2018-01-01T05:36:13.643Z,0
2018-01-01T05:37:13.408Z,0
2018-01-01T05:38:13.675Z,0
2018-01-01T05:39:13.660Z,0
2018-01-01T05:41:13.730Z,0
2018-01-01T05:42:13.470Z,0
2018-01-01T05:43:13.491Z,0
2018-01-01T05:44:13.758Z,0
2018-01-01T05:45:13.793Z,0
2018-01-01T05:47:13.311Z,0
2018-01-01T05:48:13.846Z,0
2018-01-01T05:49:13.635Z,0
2018-01-01T05:50:13.928Z,0
2018-01-01T05:51:13.678Z,0
2018-01-01T05:52:13.690Z,0
2018-01-01T05:53:13.707Z,0
2018-01-01T05:54:13.739Z,0
2018-01-01T05:55:13.755Z,0
2018-01-01T05:57:28.723Z,0
2018-01-01T05:58:13.535Z,0
2018-01-01T05:59:13.837Z,0
2018-01-01T06:00:13.331Z,0
2018-01-01T06:01:28.505Z,0
2018-01-01T06:02:28.808Z,0
2018-01-01T06:03:14.145Z,0
2018-01-01T06:04:14.147Z,0
2018-01-01T06:05:28.886Z,0
2018-01-01T06:06:14.281Z,0
2018-01-01T06:07:14.207Z,0
2018-01-01T06:08:13.978Z,0
2018-01-01T06:10:13.770Z,0
2018-01-01T06:11:13.767Z,0
2018-01-01T06:12:28.993Z,0
2018-01-01T06:13:14.069Z,0
2018-01-01T06:14:14.328Z,0
2018-01-01T06:15:13.855Z,0
2018-01-01T06:16:14.391Z,0
2018-01-01T06:17:14.209Z,0
2018-01-01T06:18:14.454Z,0
2018-01-01T06:19:29.176Z,0
2018-01-01T06:20:14.231Z,0
2018-01-01T06:21:14.464Z,0
2018-01-01T06:22:14.481Z,0
2018-01-01T06:23:28.928Z,0
2018-01-01T06:24:14.333Z,0
2018-01-01T06:26:14.605Z,0
2018-01-01T06:27:14.362Z,0
2018-01-01T06:28:29.330Z,0
2018-01-01T06:29:29.322Z,0
2018-01-01T06:30:14.438Z,0
2018-01-01T06:31:14.683Z,0
2018-01-01T06:32:14.698Z,0
2018-01-01T06:33:14.487Z,0
2018-01-01T06:34:14.242Z,0
2018-01-01T06:35:14.723Z,0
2018-01-01T06:36:14.272Z,0
2018-01-01T06:37:14.807Z,0
2018-01-01T06:38:29.517Z,0
2018-01-01T06:39:14.835Z,0
2018-01-01T06:40:14.612Z,0
2018-01-01T06:41:14.387Z,0
2018-01-01T06:42:14.388Z,0
2018-01-01T06:43:29.567Z,0
2018-01-01T06:44:14.696Z,0
2018-01-01T06:45:14.693Z,0
2018-01-01T06:46:14.987Z,0
2018-01-01T06:47:15.026Z,0
2018-01-01T06:48:14.515Z,0
2018-01-01T06:49:15.036Z,0
2018-01-01T06:50:15.067Z,0
2018-01-01T06:51:15.050Z,0
2018-01-01T06:52:15.130Z,0
2018-01-01T06:53:29.791Z,0
2018-01-01T06:54:15.122Z,0
2018-01-01T06:55:29.607Z,0
2018-01-01T06:56:14.902Z,0
2018-01-01T06:57:14.942Z,0
2018-01-01T06:58:14.476Z,0
2018-01-01T06:59:15.220Z,0
2018-01-01T07:00:15.014Z,0
2018-01-01T07:01:15.011Z,0
2018-01-01T07:02:15.296Z,0
2018-01-01T07:03:29.733Z,0
2018-01-01T07:04:15.055Z,0
2018-01-01T07:05:15.334Z,0
2018-01-01T07:06:15.343Z,0
2018-01-01T07:08:15.129Z,0
2018-01-01T07:09:15.391Z,0
2018-01-01T07:10:15.170Z,0
2018-01-01T07:11:15.195Z,0
2018-01-01T07:12:29.638Z,0
2018-01-01T07:13:30.209Z,0
2018-01-01T07:14:15.018Z,0
2018-01-01T07:15:30.187Z,0
2018-01-01T07:16:15.296Z,0
2018-01-01T07:17:15.306Z,0
2018-01-01T07:18:15.594Z,0
2018-01-01T07:19:15.588Z,0
2018-01-01T07:20:30.304Z,0
2018-01-01T07:21:15.135Z,0
2018-01-01T07:23:30.331Z,0
2018-01-01T07:24:15.451Z,5
2018-01-01T07:25:30.413Z,5
2018-01-01T07:26:15.709Z,5
2018-01-01T07:27:15.295Z,5
2018-01-01T07:28:15.753Z,10
2018-01-01T07:29:30.448Z,10
2018-01-01T07:30:15.577Z,10
2018-01-01T07:31:30.504Z,15
2018-01-01T07:32:15.881Z,15
2018-01-01T07:33:15.927Z,15
2018-01-01T07:34:30.303Z,20
2018-01-01T07:35:30.593Z,20
2018-01-01T07:36:15.713Z,20
2018-01-01T07:37:15.928Z,20
2018-01-01T07:39:30.154Z,20
2018-01-01T07:40:30.693Z,20
2018-01-01T07:41:16.042Z,20
2018-01-01T07:42:15.814Z,20
2018-01-01T07:43:16.064Z,20
2018-01-01T07:44:16.117Z,20
2018-01-01T07:45:15.864Z,25
2018-01-01T07:46:30.778Z,25
2018-01-01T07:47:45.494Z,25
2018-01-01T07:48:30.865Z,25
2018-01-01T07:49:30.845Z,25
2018-01-01T07:50:15.921Z,30
2018-01-01T07:51:15.952Z,30
2018-01-01T07:52:16.236Z,30
2018-01-01T07:53:16.244Z,30
2018-01-01T07:54:15.996Z,35
2018-01-01T07:55:16.430Z,35
2018-01-01T07:57:16.102Z,35
2018-01-01T07:58:16.362Z,30
2018-01-01T07:59:16.350Z,35
2018-01-01T08:00:31.045Z,35
2018-01-01T08:01:15.944Z,35
2018-01-01T08:02:16.149Z,35
2018-01-01T08:03:45.816Z,35
2018-01-01T08:04:16.552Z,35
2018-01-01T08:05:16.509Z,35
2018-01-01T08:06:16.240Z,35
2018-01-01T08:07:16.258Z,40
2018-01-01T08:08:16.276Z,45
2018-01-01T08:09:16.305Z,45
2018-01-01T08:10:16.582Z,50
2018-01-01T08:11:16.357Z,45
2018-01-01T08:12:31.281Z,50
2018-01-01T08:13:16.688Z,50
2018-01-01T08:14:16.155Z,50
2018-01-01T08:15:16.441Z,50
2018-01-01T08:16:16.723Z,45
2018-01-01T08:17:16.729Z,45
2018-01-01T08:18:45.570Z,45
2018-01-01T08:19:31.170Z,45
2018-01-01T08:20:16.765Z,45
2018-01-01T08:21:16.524Z,50
2018-01-01T08:22:16.827Z,50
2018-01-01T08:23:16.585Z,50
2018-01-01T08:24:16.937Z,55
2018-01-01T08:25:16.883Z,55
2018-01-01T08:26:31.393Z,55
2018-01-01T08:27:16.931Z,55
2018-01-01T08:28:16.976Z,55
2018-01-01T08:29:16.918Z,60
2018-01-01T08:30:31.637Z,55
2018-01-01T08:31:31.405Z,55
2018-01-01T08:32:17.045Z,55
2018-01-01T08:34:17.021Z,55
2018-01-01T08:35:17.097Z,60
2018-01-01T08:36:17.192Z,60
2018-01-01T08:37:31.772Z,55
2018-01-01T08:38:31.794Z,55
2018-01-01T08:39:17.150Z,60
2018-01-01T08:40:16.898Z,60
2018-01-01T08:41:17.151Z,60
2018-01-01T08:42:17.201Z,60
2018-01-01T08:43:17.200Z,60
2018-01-01T08:44:17.255Z,60
2018-01-01T08:45:17.267Z,60
2018-01-01T08:46:17.307Z,60
2018-01-01T08:47:17.259Z,60
2018-01-01T08:48:17.293Z,60
2018-01-01T08:49:17.318Z,60
2018-01-01T08:50:32.015Z,60
2018-01-01T08:51:17.380Z,60
2018-01-01T08:52:17.146Z,60
2018-01-01T08:53:17.402Z,60
2018-01-01T08:54:17.411Z,75
2018-01-01T08:55:17.412Z,60
2018-01-01T08:56:17.202Z,65
2018-01-01T08:57:31.897Z,65
2018-01-01T08:58:17.491Z,65
2018-01-01T08:59:32.227Z,70
2018-01-01T09:00:46.890Z,65
2018-01-01T09:01:17.062Z,75
2018-01-01T09:02:17.566Z,80
2018-01-01T09:03:17.600Z,80
2018-01-01T09:04:17.612Z,95
2018-01-01T09:05:17.626Z,95
2018-01-01T09:06:32.331Z,95
2018-01-01T09:07:17.454Z,95
2018-01-01T09:08:17.474Z,95
2018-01-01T09:09:17.709Z,95
2018-01-01T09:10:32.428Z,90
2018-01-01T09:11:17.260Z,85
2018-01-01T09:12:17.532Z,75
2018-01-01T09:14:32.475Z,75
2018-01-01T09:15:17.837Z,75
2018-01-01T09:16:17.825Z,85
2018-01-01T09:17:17.595Z,90
2018-01-01T09:18:32.539Z,95
2018-01-01T09:19:17.694Z,100
2018-01-01T09:20:17.916Z,100
2018-01-01T09:21:17.430Z,100
2018-01-01T09:22:32.429Z,95
2018-01-01T09:23:17.952Z,95
2018-01-01T09:24:17.756Z,90
2018-01-01T09:25:17.743Z,95
2018-01-01T09:26:18.033Z,95
2018-01-01T09:27:32.734Z,100
2018-01-01T09:28:18.076Z,100
2018-01-01T09:29:32.745Z,100
2018-01-01T09:30:17.883Z,95
2018-01-01T09:31:18.173Z,100
2018-01-01T09:32:18.171Z,95
2018-01-01T09:33:17.944Z,90
2018-01-01T09:34:18.191Z,90
2018-01-01T09:35:17.958Z,85
2018-01-01T09:36:17.976Z,90
2018-01-01T09:37:18.015Z,80
2018-01-01T09:38:32.921Z,75
2018-01-01T09:39:18.021Z,80
2018-01-01T09:40:18.295Z,85
2018-01-01T09:41:33.031Z,85
2018-01-01T09:42:18.129Z,85
2018-01-01T09:43:18.395Z,85
2018-01-01T09:44:17.905Z,90
2018-01-01T09:45:32.820Z,90
2018-01-01T09:46:18.434Z,90
2018-01-01T09:47:18.447Z,85
2018-01-01T09:49:18.521Z,85
2018-01-01T09:50:18.515Z,90
2018-01-01T09:51:18.540Z,90
2018-01-01T09:52:32.954Z,85
2018-01-01T09:53:33.344Z,85
2018-01-01T09:54:18.344Z,85
2018-01-01T09:55:18.643Z,90
2018-01-01T09:56:18.635Z,90
2018-01-01T09:57:18.651Z,90
2018-01-01T09:58:18.390Z,85
2018-01-01T09:59:18.561Z,95
2018-01-01T10:00:18.483Z,90
2018-01-01T10:01:18.726Z,100
2018-01-01T10:03:18.491Z,100
2018-01-01T10:05:18.541Z,90
2018-01-01T10:06:18.821Z,85
2018-01-01T10:07:33.279Z,75
2018-01-01T10:08:18.848Z,90
2018-01-01T10:09:18.392Z,90
2018-01-01T10:10:18.922Z,80
2018-01-01T10:11:33.343Z,95
2018-01-01T10:12:18.698Z,90
2018-01-01T10:13:33.653Z,90
2018-01-01T10:14:18.965Z,80
2018-01-01T10:15:33.424Z,85
2018-01-01T10:16:33.440Z,90
2018-01-01T10:17:19.052Z,90
2018-01-01T10:18:19.078Z,80
2018-01-01T10:19:18.575Z,80
2018-01-01T10:20:18.856Z,75
2018-01-01T10:21:19.115Z,70
2018-01-01T10:22:19.152Z,70
2018-01-01T10:23:18.886Z,65
2018-01-01T10:24:18.902Z,65
2018-01-01T10:25:48.532Z,60
2018-01-01T10:26:18.963Z,60
2018-01-01T10:27:19.264Z,55
2018-01-01T10:28:33.911Z,60
2018-01-01T10:29:19.021Z,60
2018-01-01T10:30:19.288Z,60
2018-01-01T10:31:18.796Z,55
2018-01-01T10:32:34.039Z,45
2018-01-01T10:33:19.347Z,45
2018-01-01T10:34:19.381Z,35
2018-01-01T10:35:34.076Z,25
2018-01-01T10:36:19.212Z,30
2018-01-01T10:37:19.186Z,30
2018-01-01T10:38:19.227Z,30
2018-01-01T10:39:19.455Z,25
2018-01-01T10:40:19.263Z,25
2018-01-01T10:41:33.946Z,30
2018-01-01T10:42:19.280Z,35
2018-01-01T10:43:19.332Z,35
2018-01-01T10:44:19.325Z,40
2018-01-01T10:46:19.375Z,45
2018-01-01T10:47:19.417Z,45
2018-01-01T10:48:34.319Z,45
2018-01-01T10:49:33.858Z,40
2018-01-01T10:50:34.361Z,30
2018-01-01T10:51:19.716Z,30
2018-01-01T10:52:19.493Z,30
2018-01-01T10:53:34.197Z,20
2018-01-01T10:54:19.534Z,20
2018-01-01T10:55:19.524Z,20
2018-01-01T10:56:19.550Z,20
2018-01-01T10:57:34.547Z,20
2018-01-01T10:58:19.860Z,20
2018-01-01T10:59:19.894Z,20
2018-01-01T11:00:19.727Z,20
2018-01-01T11:01:34.324Z,20
2018-01-01T11:02:19.682Z,20
2018-01-01T11:04:19.947Z,20
2018-01-01T11:05:19.781Z,20
2018-01-01T11:06:19.490Z,20
2018-01-01T11:07:19.514Z,20
2018-01-01T11:08:19.808Z,20
2018-01-01T11:09:19.874Z,20
2018-01-01T11:11:19.863Z,25
2018-01-01T11:12:20.125Z,25
2018-01-01T11:13:34.555Z,25
2018-01-01T11:14:20.196Z,25
2018-01-01T11:15:20.182Z,25
2018-01-01T11:16:19.957Z,25
2018-01-01T11:17:20.265Z,25
2018-01-01T11:18:20.222Z,25
2018-01-01T11:19:20.298Z,25
2018-01-01T11:20:20.280Z,25
2018-01-01T11:21:20.348Z,25
2018-01-01T11:22:20.412Z,25
2018-01-01T11:23:20.334Z,25
2018-01-01T11:24:20.392Z,25
2018-01-01T11:25:20.369Z,25
2018-01-01T11:26:20.374Z,25
2018-01-01T11:27:20.136Z,30
2018-01-01T11:28:35.123Z,35
2018-01-01T11:29:35.143Z,35
2018-01-01T11:30:20.234Z,35
2018-01-01T11:32:20.501Z,40
2018-01-01T11:33:20.540Z,40
2018-01-01T11:34:20.269Z,35
2018-01-01T11:35:19.802Z,35
2018-01-01T11:37:20.627Z,35
2018-01-01T11:38:20.689Z,35
2018-01-01T11:40:35.085Z,40
2018-01-01T11:41:20.709Z,45
2018-01-01T11:42:20.742Z,45
2018-01-01T11:44:35.248Z,45
2018-01-01T11:45:20.556Z,45
2018-01-01T11:46:20.812Z,40
2018-01-01T11:47:20.804Z,45
2018-01-01T11:48:20.325Z,45
2018-01-01T11:49:20.843Z,45
2018-01-01T11:50:20.594Z,45
2018-01-01T11:51:35.556Z,45
2018-01-01T11:52:20.903Z,60
2018-01-01T11:53:20.723Z,50
2018-01-01T11:54:20.911Z,45
2018-01-01T11:55:20.702Z,45
2018-01-01T11:56:20.769Z,45
2018-01-01T11:57:21.024Z,45
2018-01-01T11:59:35.702Z,40
2018-01-01T12:00:35.454Z,35
2018-01-01T12:01:21.099Z,35
2018-01-01T12:02:20.852Z,35
2018-01-01T12:03:21.158Z,35
2018-01-01T12:04:20.929Z,35
2018-01-01T12:05:20.895Z,35
2018-01-01T12:06:21.194Z,40
2018-01-01T12:07:21.183Z,40
2018-01-01T12:08:21.233Z,45
2018-01-01T12:09:21.271Z,45
2018-01-01T12:10:35.918Z,45
2018-01-01T12:11:21.295Z,40
2018-01-01T12:12:22.231Z,40
2018-01-01T12:13:35.974Z,35
2018-01-01T12:14:35.757Z,35
2018-01-01T12:15:21.096Z,35
2018-01-01T12:16:35.816Z,35
2018-01-01T12:17:21.425Z,40
2018-01-01T12:18:21.180Z,40
2018-01-01T12:19:21.421Z,40
2018-01-01T12:21:21.461Z,40
2018-01-01T12:23:21.228Z,35
2018-01-01T12:24:36.185Z,35
2018-01-01T12:25:21.534Z,35
2018-01-01T12:26:21.584Z,30
2018-01-01T12:27:21.575Z,30
2018-01-01T12:29:21.737Z,25
2018-01-01T12:30:21.396Z,25
2018-01-01T12:31:21.699Z,25
2018-01-01T12:33:21.743Z,20
2018-01-01T12:34:20.942Z,20
2018-01-01T12:35:21.500Z,20
2018-01-01T12:36:36.422Z,20
2018-01-01T12:37:36.449Z,20
2018-01-01T12:38:21.538Z,20
2018-01-01T12:39:21.322Z,20
2018-01-01T12:40:21.060Z,20
2018-01-01T12:41:21.878Z,20
2018-01-01T12:43:36.338Z,15
2018-01-01T12:44:21.932Z,20
2018-01-01T12:45:21.683Z,20
2018-01-01T12:46:36.383Z,20
2018-01-01T12:47:21.960Z,20
2018-01-01T12:48:51.344Z,20
2018-01-01T12:49:22.005Z,20
2018-01-01T12:50:36.716Z,20
2018-01-01T12:51:22.028Z,20
2018-01-01T12:52:21.821Z,25
2018-01-01T12:53:22.114Z,25
2018-01-01T12:54:21.846Z,25
2018-01-01T12:55:22.099Z,30
2018-01-01T12:56:21.646Z,30
2018-01-01T12:57:21.887Z,40
2018-01-01T12:58:22.248Z,40
2018-01-01T12:59:21.952Z,40
2018-01-01T13:00:36.901Z,40
2018-01-01T13:01:22.265Z,40
2018-01-01T13:02:36.671Z,40
2018-01-01T13:03:51.621Z,45
2018-01-01T13:05:22.041Z,45
2018-01-01T13:06:22.192Z,45
2018-01-01T13:07:22.368Z,45
2018-01-01T13:08:22.362Z,50
2018-01-01T13:09:37.088Z,45
2018-01-01T13:11:36.614Z,45
2018-01-01T13:12:37.113Z,45
2018-01-01T13:13:22.487Z,45
2018-01-01T13:14:22.224Z,45
2018-01-01T13:15:22.318Z,45
2018-01-01T13:16:36.945Z,45
2018-01-01T13:17:22.568Z,50
2018-01-01T13:18:22.361Z,50
2018-01-01T13:19:22.695Z,45
2018-01-01T13:20:22.647Z,45
2018-01-01T13:21:22.376Z,45
2018-01-01T13:22:37.364Z,50
2018-01-01T13:23:22.450Z,50
2018-01-01T13:24:37.355Z,50
2018-01-01T13:25:22.242Z,50
2018-01-01T13:26:22.466Z,70
2018-01-01T13:27:22.741Z,70
2018-01-01T13:28:22.557Z,45
2018-01-01T13:29:22.271Z,50
2018-01-01T13:30:22.561Z,45
2018-01-01T13:31:37.508Z,45
2018-01-01T13:32:22.860Z,45
2018-01-01T13:33:37.554Z,55
2018-01-01T13:34:22.889Z,50
2018-01-01T13:35:52.250Z,45
2018-01-01T13:36:22.681Z,45
2018-01-01T13:37:22.686Z,45
2018-01-01T13:39:22.974Z,40
2018-01-01T13:40:23.016Z,40
2018-01-01T13:41:22.754Z,40
2018-01-01T13:43:37.715Z,35
2018-01-01T13:44:22.833Z,35
2018-01-01T13:45:23.109Z,35
2018-01-01T13:46:37.805Z,30
2018-01-01T13:47:23.134Z,30
2018-01-01T13:48:22.942Z,30
2018-01-01T13:50:23.173Z,30
2018-01-01T13:51:37.870Z,25
2018-01-01T13:52:22.997Z,25
2018-01-01T13:53:22.983Z,25
2018-01-01T13:54:23.016Z,25
2018-01-01T13:55:23.274Z,25
2018-01-01T13:56:23.300Z,25
2018-01-01T13:57:23.326Z,20
2018-01-01T13:58:23.359Z,20
2018-01-01T13:59:23.125Z,20
2018-01-01T14:01:23.418Z,20
2018-01-01T14:02:23.435Z,20
2018-01-01T14:03:23.197Z,20
2018-01-01T14:04:23.472Z,15
2018-01-01T14:05:23.461Z,15
2018-01-01T14:07:38.185Z,15
2018-01-01T14:08:23.585Z,15
2018-01-01T14:09:23.298Z,15
2018-01-01T14:10:37.997Z,15
2018-01-01T14:11:38.296Z,15
2018-01-01T14:12:37.769Z,15
2018-01-01T14:13:38.308Z,15
2018-01-01T14:14:23.637Z,15
2018-01-01T14:15:23.406Z,15
2018-01-01T14:16:23.189Z,15
2018-01-01T14:17:23.714Z,15
2018-01-01T14:18:23.474Z,15
2018-01-01T14:19:23.766Z,15
2018-01-01T14:20:23.553Z,15
2018-01-01T14:21:23.800Z,15
2018-01-01T14:22:23.788Z,15
2018-01-01T14:23:38.475Z,15
2018-01-01T14:24:23.575Z,15
2018-01-01T14:25:23.104Z,15
2018-01-01T14:26:23.656Z,15
2018-01-01T14:28:38.347Z,15
2018-01-01T14:29:23.958Z,15
2018-01-01T14:30:23.972Z,15
2018-01-01T14:31:23.982Z,10
2018-01-01T14:32:38.657Z,10
2018-01-01T14:33:23.987Z,10
2018-01-01T14:34:24.072Z,10
2018-01-01T14:35:24.060Z,10
2018-01-01T14:36:24.100Z,10
2018-01-01T14:37:38.772Z,10
2018-01-01T14:38:38.790Z,10
2018-01-01T14:40:24.127Z,10
2018-01-01T14:41:23.874Z,10
2018-01-01T14:42:24.153Z,10
2018-01-01T14:43:23.946Z,5
2018-01-01T14:44:24.209Z,5
2018-01-01T14:45:23.968Z,5
2018-01-01T14:46:24.261Z,5
2018-01-01T14:47:24.277Z,5
2018-01-01T14:48:24.047Z,5
2018-01-01T14:49:24.327Z,5
2018-01-01T14:50:24.350Z,5
2018-01-01T14:51:24.084Z,5
2018-01-01T14:52:24.354Z,5
2018-01-01T14:53:24.380Z,5
2018-01-01T14:54:24.376Z,5
2018-01-01T14:55:24.425Z,5
2018-01-01T14:56:38.855Z,5
2018-01-01T14:57:24.198Z,5
2018-01-01T14:58:24.470Z,5
2018-01-01T14:59:39.166Z,5
2018-01-01T15:00:24.501Z,5
2018-01-01T15:01:24.027Z,0
2018-01-01T15:02:24.541Z,0
2018-01-01T15:03:24.055Z,0
2018-01-01T15:04:24.553Z,0
2018-01-01T15:05:24.347Z,0
2018-01-01T15:06:24.636Z,0
2018-01-01T15:07:23.902Z,0
2018-01-01T15:08:24.691Z,0
2018-01-01T15:09:39.316Z,0
2018-01-01T15:10:39.370Z,0
2018-01-01T15:12:24.743Z,0
2018-01-01T15:13:24.537Z,0
2018-01-01T15:14:24.499Z,0
2018-01-01T15:15:24.800Z,0
2018-01-01T15:16:24.823Z,0
2018-01-01T15:17:24.813Z,0
2018-01-01T15:18:24.843Z,0
2018-01-01T15:19:24.618Z,0
2018-01-01T15:20:24.664Z,0
2018-01-01T15:21:24.675Z,0
2018-01-01T15:22:24.883Z,0
2018-01-01T15:23:39.597Z,0
2018-01-01T15:24:24.969Z,0